Time;durP1;ratioP1;P1;durP2;ratioP2;P2;SDS_P1;SDS_P2;PMS_P1;PMS_P2;Temp;Humidity;BMP_temperature;BMP_pressure;BME280_temperature;BME280_humidity;BME280_pressure;Samples;Min_cycle;Max_cycle;Signal;HPM_P1;HPM_P2
2023/04/27 06:56:11;;;;;;;8.87;3.47;;;11.60;99.90;;;;;;4495884;23;20222;-69
2023/04/27 06:58:38;;;;;;;5.57;2.57;;;12.00;99.90;;;;;;4985329;28;20234;-68
2023/04/27 07:01:05;;;;;;;6.37;3.23;;;12.00;99.90;;;;;;4992766;28;20206;-69
2023/04/27 07:03:35;;;;;;;6.30;2.80;;;12.20;99.90;;;;;;4992679;28;20297;-69
2023/04/27 07:06:02;;;;;;;6.80;3.03;;;12.50;99.90;;;;;;4992766;28;20782;-69
2023/04/27 07:08:29;;;;;;;4.57;2.97;;;12.30;99.90;;;;;;4992990;28;20245;-68
2023/04/27 07:10:56;;;;;;;4.30;2.57;;;12.60;99.90;;;;;;4992934;28;20297;-69
2023/04/27 07:13:24;;;;;;;6.33;3.20;;;13.40;99.90;;;;;;4992481;28;20733;-69
2023/04/27 07:15:57;;;;;;;5.93;3.10;;;13.20;99.90;;;;;;4993906;28;20238;-70
2023/04/27 07:18:24;;;;;;;5.20;3.13;;;12.60;99.90;;;;;;4996131;28;20237;-69
2023/04/27 07:20:51;;;;;;;6.47;2.97;;;12.80;99.90;;;;;;4996788;28;20233;-69
2023/04/27 07:23:18;;;;;;;8.47;3.40;;;13.20;99.90;;;;;;4996500;28;20269;-69
2023/04/27 07:25:45;;;;;;;6.13;3.37;;;12.90;99.90;;;;;;4996438;28;20210;-69
2023/04/27 07:28:12;;;;;;;5.43;3.43;;;13.20;99.90;;;;;;4996474;28;20559;-69
2023/04/27 07:30:41;;;;;;;5.77;3.13;;;13.70;99.80;;;;;;4996205;28;20206;-69
2023/04/27 07:33:08;;;;;;;6.10;3.53;;;13.90;99.50;;;;;;4996474;28;20237;-70
2023/04/27 07:35:35;;;;;;;7.43;3.70;;;13.90;99.10;;;;;;4996459;28;20292;-69
2023/04/27 07:38:03;;;;;;;5.80;3.50;;;13.90;99.20;;;;;;4996445;28;20597;-69
2023/04/27 07:40:31;;;;;;;6.70;3.67;;;14.20;99.40;;;;;;4996591;28;20621;-69
2023/04/27 07:42:58;;;;;;;6.87;3.80;;;14.50;98.80;;;;;;4996175;28;20226;-70
2023/04/27 07:45:30;;;;;;;6.83;3.57;;;14.40;99.10;;;;;;4996038;28;20214;-69
2023/04/27 07:47:59;;;;;;;11.37;3.60;;;14.40;98.60;;;;;;4996102;28;20540;-69
2023/04/27 07:50:26;;;;;;;5.93;3.10;;;14.40;99.00;;;;;;4996089;28;20300;-69
2023/04/27 07:52:54;;;;;;;6.80;3.70;;;14.20;98.90;;;;;;4996003;28;20274;-69
2023/04/27 07:55:22;;;;;;;7.30;3.93;;;14.50;99.00;;;;;;4995829;28;20219;-69
2023/04/27 07:57:49;;;;;;;9.57;3.73;;;14.50;98.40;;;;;;4995780;28;20261;-69
2023/04/27 08:00:16;;;;;;;8.47;4.23;;;14.20;98.70;;;;;;4996137;28;20238;-69
2023/04/27 08:02:43;;;;;;;11.00;4.30;;;13.90;99.10;;;;;;4995664;28;20313;-69
2023/04/27 08:05:12;;;;;;;9.17;4.73;;;14.10;99.50;;;;;;4995864;28;20210;-69
2023/04/27 08:07:39;;;;;;;8.27;4.23;;;14.50;98.90;;;;;;4995660;28;20302;-69
2023/04/27 08:10:07;;;;;;;8.57;4.80;;;14.60;98.10;;;;;;4995736;28;20206;-69
2023/04/27 08:12:35;;;;;;;9.57;4.40;;;15.00;97.00;;;;;;4995105;28;20313;-69
2023/04/27 08:15:02;;;;;;;8.70;4.70;;;15.40;97.00;;;;;;4995473;28;20663;-69
2023/04/27 08:17:29;;;;;;;10.43;4.33;;;15.00;96.50;;;;;;4995651;28;20609;-69
2023/04/27 08:19:55;;;;;;;11.27;4.57;;;14.70;97.50;;;;;;4995640;28;20233;-69
2023/04/27 08:22:24;;;;;;;9.93;4.83;;;14.30;97.50;;;;;;4995359;28;20261;-69
2023/04/27 08:24:50;;;;;;;9.33;4.57;;;14.40;97.70;;;;;;4995181;28;20246;-69
2023/04/27 08:27:17;;;;;;;9.90;4.17;;;14.40;97.80;;;;;;4994012;28;20650;-69
2023/04/27 08:29:48;;;;;;;10.40;4.53;;;14.40;97.30;;;;;;4995539;28;20304;-70
2023/04/27 08:32:15;;;;;;;8.57;4.27;;;14.30;98.00;;;;;;4995525;28;20304;-69
2023/04/27 08:34:43;;;;;;;10.47;4.90;;;14.50;97.80;;;;;;4994917;28;20297;-69
2023/04/27 08:37:10;;;;;;;9.90;4.80;;;14.10;98.00;;;;;;4995666;28;20242;-69
2023/04/27 08:39:39;;;;;;;10.30;5.20;;;14.40;98.20;;;;;;4995001;28;20757;-69
2023/04/27 08:42:15;;;;;;;7.57;4.50;;;14.60;97.40;;;;;;4994963;28;20210;-69
2023/04/27 08:44:42;;;;;;;8.67;4.53;;;14.70;97.80;;;;;;4995169;28;20289;-69
2023/04/27 08:47:10;;;;;;;9.70;5.03;;;14.30;97.70;;;;;;4994479;28;20203;-69
2023/04/27 08:49:40;;;;;;;10.83;4.80;;;14.40;97.60;;;;;;4994266;28;20218;-69
2023/04/27 08:52:11;;;;;;;10.73;4.87;;;14.80;97.70;;;;;;4994453;28;20217;-70
2023/04/27 08:54:40;;;;;;;10.07;5.07;;;14.90;96.80;;;;;;4994741;28;20296;-69
2023/04/27 08:57:11;;;;;;;7.40;4.30;;;14.60;97.30;;;;;;4994533;28;20272;-69
2023/04/27 08:59:38;;;;;;;10.23;4.60;;;15.00;96.70;;;;;;4994565;28;20261;-69
2023/04/27 09:02:05;;;;;;;8.90;4.73;;;15.10;97.20;;;;;;4994604;28;20237;-69
2023/04/27 09:04:39;;;;;;;8.40;4.13;;;15.10;97.10;;;;;;4994674;28;20741;-70
2023/04/27 09:07:14;;;;;;;9.60;4.20;;;14.80;96.70;;;;;;4994356;28;20206;-70
2023/04/27 09:09:43;;;;;;;9.33;4.03;;;14.60;96.00;;;;;;4978917;28;20220;-70
2023/04/27 09:12:17;;;;;;;7.73;3.73;;;14.90;96.20;;;;;;4976713;28;20290;-70
2023/04/27 09:14:55;;;;;;;6.80;3.87;;;14.80;96.00;;;;;;4979634;28;20210;-70
2023/04/27 09:17:26;;;;;;;9.37;3.70;;;14.40;96.50;;;;;;4977803;28;20203;-70
2023/04/27 09:19:53;;;;;;;8.40;4.00;;;14.30;96.80;;;;;;4985587;28;20226;-69
2023/04/27 09:22:20;;;;;;;7.50;3.70;;;13.70;96.90;;;;;;4987387;28;20339;-69
2023/04/27 09:24:54;;;;;;;8.13;4.00;;;13.70;97.20;;;;;;4990911;28;20314;-68
2023/04/27 09:27:22;;;;;;;8.77;3.90;;;13.70;97.10;;;;;;4974177;28;20257;-68
2023/04/27 09:29:49;;;;;;;9.37;3.80;;;13.60;96.80;;;;;;4972644;28;20211;-68
2023/04/27 09:32:16;;;;;;;6.80;3.67;;;13.80;97.50;;;;;;4974029;28;20258;-69
2023/04/27 09:34:43;;;;;;;7.03;3.57;;;14.20;96.40;;;;;;4974513;28;20285;-69
2023/04/27 09:37:10;;;;;;;8.53;3.83;;;14.40;96.30;;;;;;4974645;28;20294;-69
2023/04/27 09:39:38;;;;;;;6.07;3.57;;;14.60;96.60;;;;;;4974455;28;20239;-69
2023/04/27 09:42:07;;;;;;;7.50;3.37;;;15.10;95.90;;;;;;4974400;28;20371;-69
2023/04/27 09:44:34;;;;;;;5.70;3.20;;;14.50;95.50;;;;;;4974284;28;20676;-69
2023/04/27 09:47:02;;;;;;;9.03;4.00;;;14.40;95.80;;;;;;4974511;28;20215;-68
2023/04/27 09:49:29;;;;;;;9.27;3.40;;;14.00;95.40;;;;;;4974498;28;20579;-68
2023/04/27 09:51:57;;;;;;;8.40;4.20;;;13.80;96.20;;;;;;4974418;28;20208;-69
2023/04/27 09:54:28;;;;;;;7.60;3.80;;;13.90;95.80;;;;;;4974288;28;20207;-69
2023/04/27 09:57:04;;;;;;;7.80;4.03;;;13.90;96.60;;;;;;4974002;28;20214;-68
2023/04/27 09:59:48;;;;;;;5.40;3.13;;;14.00;95.60;;;;;;4974219;28;20235;-68
2023/04/27 10:02:17;;;;;;;5.67;2.97;;;14.00;94.90;;;;;;4974092;28;20269;-68
2023/04/27 10:05:06;;;;;;;5.77;3.10;;;13.80;95.10;;;;;;4974212;28;20755;-68
2023/04/27 10:07:34;;;;;;;6.33;3.10;;;13.90;95.10;;;;;;4974094;28;20699;-68
2023/04/27 10:10:03;;;;;;;6.60;3.53;;;13.90;95.00;;;;;;4974250;28;20204;-68
2023/04/27 10:12:35;;;;;;;7.53;3.57;;;13.80;95.70;;;;;;4973691;28;20227;-68
2023/04/27 10:15:14;;;;;;;7.43;3.73;;;13.90;96.50;;;;;;4973993;28;20248;-68
2023/04/27 10:17:48;;;;;;;6.63;3.17;;;14.00;95.90;;;;;;4973997;28;20207;-68
2023/04/27 10:20:16;;;;;;;6.20;3.17;;;14.00;94.90;;;;;;4973864;28;20774;-68
2023/04/27 10:22:44;;;;;;;4.90;2.90;;;14.00;94.60;;;;;;4973778;28;20699;-68
2023/04/27 10:25:17;;;;;;;7.00;2.93;;;14.10;94.50;;;;;;4974005;28;20214;-68
2023/04/27 10:27:49;;;;;;;9.10;3.57;;;14.40;95.10;;;;;;4973978;28;20564;-68
2023/04/27 10:30:19;;;;;;;6.27;3.07;;;14.50;95.00;;;;;;4974260;28;20214;-68
2023/04/27 10:32:53;;;;;;;5.10;2.77;;;14.30;95.00;;;;;;4973863;28;20703;-69
2023/04/27 10:35:21;;;;;;;4.30;2.80;;;14.00;94.20;;;;;;4985992;28;20206;-68
2023/04/27 10:37:48;;;;;;;8.70;3.43;;;14.10;94.40;;;;;;4992933;28;20305;-68
2023/04/27 10:40:17;;;;;;;7.73;2.90;;;14.20;94.80;;;;;;4993486;28;20277;-68
2023/04/27 10:42:47;;;;;;;8.17;3.20;;;14.50;94.70;;;;;;4992762;28;20714;-68
2023/04/27 10:45:13;;;;;;;5.93;3.23;;;14.50;94.70;;;;;;4993271;28;20206;-69
2023/04/27 10:47:44;;;;;;;5.47;2.90;;;14.60;94.50;;;;;;4993568;28;20253;-68
2023/04/27 10:50:12;;;;;;;7.97;3.30;;;14.40;93.60;;;;;;4993434;28;20242;-69
2023/04/27 10:52:42;;;;;;;6.07;2.90;;;14.60;94.50;;;;;;4996720;28;20237;-69
2023/04/27 10:55:16;;;;;;;8.63;3.07;;;14.70;93.00;;;;;;4997032;28;20305;-69
2023/04/27 10:57:48;;;;;;;8.83;3.77;;;14.70;93.10;;;;;;4997095;28;20237;-70
2023/04/27 11:00:17;;;;;;;7.60;3.33;;;14.50;94.00;;;;;;4996957;28;20234;-70
2023/04/27 11:02:46;;;;;;;5.03;3.03;;;14.20;94.60;;;;;;4996902;28;20630;-70
2023/04/27 11:05:21;;;;;;;6.87;3.23;;;14.20;95.00;;;;;;4997092;28;20297;-70
2023/04/27 11:07:48;;;;;;;8.10;3.37;;;14.00;95.10;;;;;;4996917;28;20228;-70
2023/04/27 11:10:16;;;;;;;4.83;2.83;;;14.30;95.70;;;;;;4990961;28;20254;-70
2023/04/27 11:12:43;;;;;;;6.00;2.60;;;14.70;94.40;;;;;;4996411;28;20236;-69
2023/04/27 11:15:11;;;;;;;6.60;3.40;;;14.80;92.50;;;;;;4990753;28;20230;-69
2023/04/27 11:17:38;;;;;;;7.20;3.33;;;14.60;93.20;;;;;;4995496;28;20217;-69
2023/04/27 11:20:08;;;;;;;6.37;3.50;;;14.80;94.00;;;;;;4995108;28;20325;-69
2023/04/27 11:22:43;;;;;;;5.57;3.40;;;15.00;94.20;;;;;;4995236;28;20230;-68
2023/04/27 11:25:10;;;;;;;6.43;3.20;;;14.90;93.60;;;;;;4995287;28;20459;-69
2023/04/27 11:27:38;;;;;;;6.17;3.30;;;14.40;94.30;;;;;;4994941;28;20206;-69
2023/04/27 11:30:07;;;;;;;7.57;2.57;;;14.40;92.80;;;;;;4994784;28;20210;-70
2023/04/27 11:32:34;;;;;;;5.93;3.43;;;14.40;93.50;;;;;;4994392;28;20809;-70
2023/04/27 11:35:01;;;;;;;4.53;2.60;;;14.30;92.80;;;;;;4995034;28;20248;-70
2023/04/27 11:37:30;;;;;;;7.30;3.50;;;14.50;93.10;;;;;;4994470;28;20260;-70
2023/04/27 11:40:00;;;;;;;7.07;3.03;;;14.70;93.50;;;;;;4994694;28;20241;-69
2023/04/27 11:42:28;;;;;;;4.90;2.80;;;14.80;92.90;;;;;;4994573;28;20234;-68
2023/04/27 11:44:57;;;;;;;4.53;2.70;;;15.00;93.30;;;;;;4994075;28;20406;-72
2023/04/27 11:47:26;;;;;;;6.30;3.00;;;14.30;92.60;;;;;;4995187;28;20250;-69
2023/04/27 11:49:56;;;;;;;7.37;2.67;;;14.40;93.40;;;;;;4994872;28;20563;-69
2023/04/27 11:52:27;;;;;;;5.13;2.53;;;14.70;92.90;;;;;;4994772;28;20737;-70
2023/04/27 11:54:56;;;;;;;4.67;2.60;;;14.50;92.10;;;;;;4994796;28;20366;-70
2023/04/27 11:57:27;;;;;;;5.57;2.67;;;14.50;91.90;;;;;;4994596;28;20297;-70
2023/04/27 11:59:55;;;;;;;6.33;3.10;;;14.50;92.90;;;;;;4994711;28;20274;-72
2023/04/27 12:02:23;;;;;;;8.00;3.40;;;14.40;92.60;;;;;;4994187;28;20677;-69
2023/04/27 12:04:50;;;;;;;4.43;3.00;;;14.70;92.70;;;;;;4994335;28;20249;-69
2023/04/27 12:07:17;;;;;;;6.43;3.43;;;14.40;92.90;;;;;;4994650;28;20214;-70
2023/04/27 12:09:44;;;;;;;7.47;3.53;;;14.30;92.90;;;;;;4994084;28;20293;-69
2023/04/27 12:12:13;;;;;;;5.53;3.30;;;14.40;92.70;;;;;;4993947;28;20300;-71
2023/04/27 12:14:40;;;;;;;5.93;3.40;;;14.50;93.30;;;;;;4994803;28;20210;-72
2023/04/27 12:17:07;;;;;;;7.67;3.67;;;14.50;92.70;;;;;;4995602;28;20261;-72
2023/04/27 12:19:36;;;;;;;5.60;3.33;;;14.60;92.80;;;;;;4995260;28;20223;-72
2023/04/27 12:22:03;;;;;;;7.90;3.60;;;14.50;93.70;;;;;;4995330;28;20292;-72
2023/04/27 12:24:31;;;;;;;7.20;3.37;;;14.40;93.50;;;;;;4995264;28;20214;-70
2023/04/27 12:26:58;;;;;;;5.17;2.60;;;14.50;93.30;;;;;;4995291;28;20214;-70
2023/04/27 12:29:26;;;;;;;9.03;3.10;;;14.40;93.40;;;;;;4995379;28;20297;-70
2023/04/27 12:31:53;;;;;;;6.57;2.83;;;14.50;94.90;;;;;;4995399;28;20241;-70
2023/04/27 12:34:20;;;;;;;5.53;3.60;;;14.70;94.10;;;;;;4995233;28;20202;-71
2023/04/27 12:36:47;;;;;;;5.70;3.20;;;14.70;93.40;;;;;;4995245;28;20202;-70
2023/04/27 12:39:16;;;;;;;6.80;3.50;;;14.90;94.30;;;;;;4995197;28;20230;-70
2023/04/27 12:41:43;;;;;;;6.90;3.60;;;14.80;93.30;;;;;;4995012;28;20264;-71
2023/04/27 12:44:11;;;;;;;9.53;3.70;;;14.90;93.10;;;;;;4995040;28;20226;-70
2023/04/27 12:46:39;;;;;;;7.23;3.97;;;15.00;93.80;;;;;;4995188;28;20210;-70
2023/04/27 12:49:06;;;;;;;5.83;3.30;;;15.00;93.00;;;;;;4995070;28;20294;-70
2023/04/27 12:51:34;;;;;;;6.13;3.33;;;15.10;93.60;;;;;;4994924;28;20252;-70
2023/04/27 12:54:01;;;;;;;9.30;3.67;;;15.20;94.20;;;;;;4997445;23;20253;-72
2023/04/27 12:56:28;;;;;;;6.53;3.73;;;15.10;94.20;;;;;;4975539;28;20216;-75
2023/04/27 12:58:55;;;;;;;9.00;3.73;;;15.00;92.90;;;;;;4975314;28;20239;-75
2023/04/27 13:01:24;;;;;;;5.33;3.40;;;14.70;92.60;;;;;;4975357;28;20294;-75
2023/04/27 13:03:54;;;;;;;6.60;3.73;;;14.50;92.70;;;;;;4975206;28;20231;-74
2023/04/27 13:06:21;;;;;;;6.37;3.50;;;14.70;93.50;;;;;;4975150;28;20213;-74
2023/04/27 13:08:49;;;;;;;5.10;3.70;;;14.90;92.70;;;;;;4975224;28;20210;-74
2023/04/27 13:11:16;;;;;;;9.13;3.70;;;14.80;92.20;;;;;;4975230;28;20298;-74
2023/04/27 13:13:44;;;;;;;8.20;3.57;;;14.80;93.10;;;;;;4974280;28;20738;-74
2023/04/27 13:16:11;;;;;;;8.57;3.50;;;15.20;93.70;;;;;;4975127;28;20243;-75
2023/04/27 13:18:39;;;;;;;6.20;3.67;;;15.40;93.10;;;;;;4974741;28;20207;-73
2023/04/27 13:21:08;;;;;;;6.83;3.40;;;15.30;93.10;;;;;;4974745;28;20639;-72
2023/04/27 13:23:35;;;;;;;6.83;3.30;;;15.50;92.80;;;;;;4974955;28;20779;-73
2023/04/27 13:26:02;;;;;;;7.50;3.33;;;15.70;92.70;;;;;;4974949;28;20639;-73
2023/04/27 13:28:29;;;;;;;6.53;3.40;;;15.00;92.40;;;;;;4974475;28;20959;-73
2023/04/27 13:30:55;;;;;;;8.27;3.20;;;14.90;93.00;;;;;;4974504;28;20253;-73
2023/04/27 13:33:22;;;;;;;6.90;3.60;;;14.80;93.00;;;;;;4974513;28;20305;-73
2023/04/27 13:35:50;;;;;;;8.23;3.47;;;15.00;93.00;;;;;;4974983;28;20242;-72
2023/04/27 13:38:19;;;;;;;7.93;3.30;;;15.20;92.70;;;;;;4974765;28;20272;-72
2023/04/27 13:40:46;;;;;;;5.90;3.10;;;15.30;92.30;;;;;;4974688;28;20601;-72
2023/04/27 13:43:12;;;;;;;8.07;3.37;;;15.30;92.70;;;;;;4974227;28;20266;-72
2023/04/27 13:45:41;;;;;;;6.23;3.17;;;15.40;92.80;;;;;;4974407;28;20298;-73
2023/04/27 13:48:08;;;;;;;6.70;3.40;;;15.50;93.50;;;;;;4974725;28;20208;-74
2023/04/27 13:50:35;;;;;;;8.47;3.53;;;15.30;92.60;;;;;;4974413;28;20302;-73
2023/04/27 13:53:02;;;;;;;8.57;3.70;;;15.10;93.30;;;;;;4974157;28;20267;-73
2023/04/27 13:55:30;;;;;;;8.17;3.60;;;15.50;93.00;;;;;;4974533;28;20254;-72
2023/04/27 13:57:57;;;;;;;4.60;2.87;;;15.60;92.80;;;;;;4974429;28;20289;-72
2023/04/27 14:00:25;;;;;;;9.20;3.37;;;15.50;92.70;;;;;;4974377;28;20266;-72
2023/04/27 14:02:51;;;;;;;5.87;3.30;;;15.50;92.40;;;;;;4974299;28;20231;-72
2023/04/27 14:05:18;;;;;;;6.83;2.90;;;15.60;92.10;;;;;;4974090;28;20294;-72
2023/04/27 14:07:45;;;;;;;5.70;3.30;;;15.80;93.10;;;;;;4974467;28;20290;-72
2023/04/27 14:10:13;;;;;;;6.27;3.50;;;16.10;92.70;;;;;;4973874;28;20211;-72
2023/04/27 14:12:41;;;;;;;8.53;3.47;;;15.80;92.10;;;;;;4973444;28;20227;-74
2023/04/27 14:15:09;;;;;;;7.47;3.23;;;15.70;91.70;;;;;;4973315;28;20632;-72
2023/04/27 14:17:36;;;;;;;6.03;3.57;;;15.60;92.40;;;;;;4973729;28;20214;-75
2023/04/27 14:20:05;;;;;;;5.33;3.23;;;15.60;92.80;;;;;;4973325;28;20318;-74
2023/04/27 14:22:32;;;;;;;7.60;3.37;;;15.60;92.00;;;;;;4973448;28;20238;-74
2023/04/27 14:24:59;;;;;;;7.53;3.23;;;15.60;92.70;;;;;;4972885;28;20207;-75
2023/04/27 14:27:26;;;;;;;4.97;3.10;;;15.60;92.90;;;;;;4972922;28;20632;-74
2023/04/27 14:29:54;;;;;;;9.30;3.60;;;15.50;92.80;;;;;;4973822;28;20346;-73
2023/04/27 14:32:22;;;;;;;7.77;3.40;;;15.60;92.80;;;;;;4973320;28;20790;-73
2023/04/27 14:34:49;;;;;;;6.93;3.20;;;15.60;92.60;;;;;;4974444;28;20210;-73
2023/04/27 14:37:16;;;;;;;10.87;4.00;;;15.70;93.00;;;;;;4974073;28;20306;-75
2023/04/27 14:39:43;;;;;;;8.57;3.70;;;15.50;93.40;;;;;;4973888;28;20301;-73
2023/04/27 14:42:10;;;;;;;6.97;3.80;;;15.50;93.10;;;;;;4973798;28;20302;-78
2023/04/27 14:44:37;;;;;;;9.93;3.97;;;15.60;93.10;;;;;;4974674;28;20298;-74
2023/04/27 14:47:05;;;;;;;7.13;3.87;;;15.60;93.00;;;;;;4973801;28;20738;-75
2023/04/27 14:49:32;;;;;;;7.77;4.07;;;15.40;93.00;;;;;;4973296;28;20214;-74
2023/04/27 14:52:02;;;;;;;6.77;4.10;;;15.40;93.60;;;;;;4973666;28;20680;-74
2023/04/27 14:54:29;;;;;;;7.77;4.13;;;15.50;93.90;;;;;;4973660;28;20218;-75
2023/04/27 14:56:57;;;;;;;8.73;4.00;;;15.40;93.40;;;;;;4973576;28;20207;-75
2023/04/27 14:59:24;;;;;;;7.07;3.50;;;15.40;93.70;;;;;;4973787;28;20211;-74
2023/04/27 15:01:51;;;;;;;8.17;3.90;;;15.50;94.00;;;;;;4973875;28;20730;-74
2023/04/27 15:04:20;;;;;;;7.97;3.70;;;15.60;93.40;;;;;;4973675;28;20315;-75
2023/04/27 15:06:47;;;;;;;8.93;4.10;;;15.80;92.80;;;;;;4973560;28;20208;-75
2023/04/27 15:09:13;;;;;;;9.10;3.83;;;16.10;92.90;;;;;;4973290;28;20246;-75
2023/04/27 15:11:41;;;;;;;7.77;3.67;;;15.90;93.20;;;;;;4973227;28;20298;-74
2023/04/27 15:14:08;;;;;;;9.30;4.13;;;15.80;93.80;;;;;;4973570;28;20227;-74
2023/04/27 15:16:35;;;;;;;8.73;3.90;;;15.60;93.90;;;;;;4973633;28;20211;-75
2023/04/27 15:19:02;;;;;;;8.30;4.00;;;16.00;94.20;;;;;;4973384;28;20302;-75
2023/04/27 15:21:31;;;;;;;6.00;4.10;;;16.10;93.60;;;;;;4973324;28;20235;-74
2023/04/27 15:23:58;;;;;;;7.67;4.27;;;16.00;93.30;;;;;;4973595;28;20227;-74
2023/04/27 15:26:26;;;;;;;9.57;4.37;;;15.80;94.00;;;;;;4973485;28;20211;-74
2023/04/27 15:28:53;;;;;;;9.83;4.63;;;15.80;94.10;;;;;;4973865;28;20207;-75
2023/04/27 15:31:20;;;;;;;9.57;3.90;;;15.90;93.30;;;;;;4973479;28;20741;-74
2023/04/27 15:33:47;;;;;;;8.10;4.07;;;16.10;93.80;;;;;;4973231;28;20231;-74
2023/04/27 15:36:14;;;;;;;7.97;4.57;;;16.20;93.30;;;;;;4973211;28;20238;-74
2023/04/27 15:38:42;;;;;;;8.70;4.70;;;16.20;93.80;;;;;;4976967;28;20565;-74
2023/04/27 15:41:09;;;;;;;7.27;4.27;;;16.00;94.40;;;;;;4976876;28;20325;-74
2023/04/27 15:43:36;;;;;;;5.90;4.23;;;16.00;94.50;;;;;;4976795;28;20290;-74
2023/04/27 15:46:04;;;;;;;10.87;4.60;;;16.00;94.10;;;;;;4976679;28;20303;-74
2023/04/27 15:48:31;;;;;;;8.37;5.00;;;15.90;94.60;;;;;;4976685;28;20742;-75
2023/04/27 15:50:58;;;;;;;12.20;4.93;;;15.80;94.60;;;;;;4976706;28;20246;-74
2023/04/27 15:53:25;;;;;;;10.77;5.13;;;15.50;94.70;;;;;;4976462;28;20755;-72
2023/04/27 15:55:53;;;;;;;8.13;4.43;;;15.40;95.00;;;;;;4976773;28;20246;-75
2023/04/27 15:58:20;;;;;;;7.87;4.93;;;15.40;95.00;;;;;;4976454;28;20638;-75
2023/04/27 16:00:47;;;;;;;8.53;5.10;;;15.50;95.10;;;;;;4976448;28;20235;-75
2023/04/27 16:03:14;;;;;;;9.53;4.47;;;15.60;95.40;;;;;;4976066;28;20310;-73
2023/04/27 16:05:40;;;;;;;8.50;4.50;;;15.60;95.20;;;;;;4976367;28;20242;-73
2023/04/27 16:08:07;;;;;;;8.73;4.67;;;15.30;95.20;;;;;;4976419;28;20631;-73
2023/04/27 16:10:34;;;;;;;10.70;5.00;;;15.30;95.40;;;;;;4976232;28;20207;-73
2023/04/27 16:13:03;;;;;;;9.73;4.73;;;15.20;95.70;;;;;;4976026;28;20767;-73
2023/04/27 16:15:30;;;;;;;9.80;4.63;;;15.20;95.80;;;;;;4975975;28;20694;-73
2023/04/27 16:17:56;;;;;;;8.63;4.93;;;15.30;95.20;;;;;;4976341;28;20238;-73
2023/04/27 16:20:27;;;;;;;6.73;4.37;;;15.50;95.50;;;;;;4976178;28;20290;-73
2023/04/27 16:22:55;;;;;;;10.70;5.87;;;15.50;95.80;;;;;;4976039;28;20329;-73
2023/04/27 16:25:22;;;;;;;10.90;5.63;;;15.40;95.90;;;;;;4975976;28;20459;-73
2023/04/27 16:27:48;;;;;;;9.97;4.80;;;15.60;96.00;;;;;;4976000;28;20294;-73
2023/04/27 16:30:17;;;;;;;9.57;4.77;;;15.60;96.00;;;;;;4975877;28;20691;-73
2023/04/27 16:32:44;;;;;;;10.93;5.20;;;15.70;97.00;;;;;;4975970;28;20318;-73
2023/04/27 16:35:13;;;;;;;10.30;4.90;;;15.60;96.50;;;;;;4975756;28;20243;-73
2023/04/27 16:37:40;;;;;;;10.33;4.90;;;15.80;96.40;;;;;;4975728;28;20664;-73
2023/04/27 16:40:08;;;;;;;9.90;5.00;;;15.50;96.60;;;;;;4975641;28;20302;-73
2023/04/27 16:42:35;;;;;;;8.67;4.90;;;15.60;96.80;;;;;;4975645;28;20223;-73
2023/04/27 16:45:02;;;;;;;11.50;5.50;;;15.50;96.50;;;;;;4975640;28;20234;-72
2023/04/27 16:47:30;;;;;;;9.87;4.70;;;15.70;96.80;;;;;;4975595;28;20297;-73
2023/04/27 16:49:57;;;;;;;10.77;5.27;;;15.70;96.70;;;;;;4975246;28;20211;-73
2023/04/27 16:52:24;;;;;;;10.57;4.90;;;15.70;96.50;;;;;;4975184;28;20231;-73
2023/04/27 16:54:51;;;;;;;8.67;5.13;;;15.50;96.60;;;;;;4975323;28;20274;-73
2023/04/27 16:57:19;;;;;;;15.13;5.67;;;15.50;97.00;;;;;;4975243;28;20238;-73
2023/04/27 16:59:46;;;;;;;10.60;5.13;;;15.40;96.90;;;;;;4975448;28;20211;-72
2023/04/27 17:02:12;;;;;;;13.03;5.10;;;15.20;97.50;;;;;;4975415;28;20267;-71
2023/04/27 17:04:41;;;;;;;10.70;5.17;;;15.20;97.40;;;;;;4974990;28;20242;-73
2023/04/27 17:07:08;;;;;;;9.60;5.17;;;15.20;97.30;;;;;;4975112;28;20256;-73
2023/04/27 17:09:36;;;;;;;9.17;5.37;;;15.10;97.70;;;;;;4974932;28;20214;-73
2023/04/27 17:12:09;;;;;;;10.50;5.20;;;15.10;97.70;;;;;;4974620;28;20207;-72
2023/04/27 17:14:36;;;;;;;10.93;6.13;;;15.10;97.80;;;;;;4975067;28;20664;-73
2023/04/27 17:17:09;;;;;;;8.67;4.40;;;15.10;97.70;;;;;;4968375;28;20298;-73
2023/04/27 17:19:36;;;;;;;9.80;4.63;;;15.10;97.90;;;;;;4971263;28;20226;-71
2023/04/27 17:22:06;;;;;;;8.87;5.30;;;15.00;98.20;;;;;;4972836;28;20321;-73
2023/04/27 17:24:33;;;;;;;10.33;4.83;;;15.00;98.20;;;;;;4973268;28;20210;-72
2023/04/27 17:27:00;;;;;;;9.77;5.30;;;14.90;98.30;;;;;;4973184;28;20261;-72
2023/04/27 17:29:27;;;;;;;9.40;4.93;;;15.00;98.20;;;;;;4973629;28;20249;-71
2023/04/27 17:31:54;;;;;;;10.43;4.73;;;14.80;98.70;;;;;;4973180;28;20243;-70
2023/04/27 17:34:21;;;;;;;10.33;5.20;;;14.80;98.40;;;;;;4973016;28;20211;-73
2023/04/27 17:36:48;;;;;;;9.63;5.33;;;14.70;98.50;;;;;;4974084;28;20202;-76
2023/04/27 17:39:16;;;;;;;8.30;4.90;;;14.80;98.60;;;;;;4974092;28;20302;-73
2023/04/27 17:41:44;;;;;;;10.70;5.03;;;14.70;98.50;;;;;;4974285;28;20322;-72
2023/04/27 17:44:11;;;;;;;7.63;4.50;;;14.80;98.50;;;;;;4974479;28;20730;-73
2023/04/27 17:46:38;;;;;;;8.93;4.83;;;14.80;98.70;;;;;;4974763;28;20218;-75
2023/04/27 17:49:05;;;;;;;9.17;4.83;;;14.70;98.80;;;;;;4974191;28;20314;-73
2023/04/27 17:51:33;;;;;;;11.03;4.87;;;14.80;98.70;;;;;;4974504;28;20250;-73
2023/04/27 17:54:00;;;;;;;11.40;5.40;;;14.70;98.60;;;;;;4974361;28;20793;-75
2023/04/27 17:56:28;;;;;;;9.03;5.00;;;14.70;98.70;;;;;;4974581;28;20246;-73
2023/04/27 17:58:55;;;;;;;9.33;5.20;;;14.70;98.70;;;;;;4974129;28;20254;-73
2023/04/27 18:01:22;;;;;;;11.47;5.30;;;14.60;98.90;;;;;;4974177;28;20670;-73
2023/04/27 18:03:49;;;;;;;11.63;5.80;;;14.40;99.00;;;;;;4974174;28;20223;-75
2023/04/27 18:06:18;;;;;;;11.27;5.33;;;14.30;99.20;;;;;;4974408;28;20239;-74
2023/04/27 18:08:45;;;;;;;9.33;5.47;;;14.20;99.30;;;;;;4973820;28;20651;-74
2023/04/27 18:11:11;;;;;;;11.93;5.37;;;14.10;99.50;;;;;;4974310;28;20235;-74
2023/04/27 18:13:40;;;;;;;9.77;5.10;;;14.20;99.80;;;;;;4974085;28;20314;-75
2023/04/27 18:16:07;;;;;;;10.77;5.07;;;14.40;99.60;;;;;;4974248;28;20230;-72
2023/04/27 18:18:34;;;;;;;9.77;5.00;;;14.40;99.50;;;;;;4974219;28;20239;-75
2023/04/27 18:21:00;;;;;;;13.33;4.93;;;14.50;99.50;;;;;;4973818;28;20266;-73
2023/04/27 18:23:27;;;;;;;12.13;6.10;;;14.60;99.50;;;;;;4974148;28;20663;-73
2023/04/27 18:25:58;;;;;;;9.20;5.20;;;14.60;99.60;;;;;;4974195;28;20286;-72
2023/04/27 18:28:25;;;;;;;7.63;4.50;;;14.50;99.70;;;;;;4974031;28;20218;-75
2023/04/27 18:30:54;;;;;;;10.93;5.00;;;14.60;99.70;;;;;;4974032;28;20298;-76
2023/04/27 18:33:21;;;;;;;10.20;5.57;;;14.60;99.60;;;;;;4973949;28;20267;-76
2023/04/27 18:35:48;;;;;;;10.63;5.17;;;14.60;99.60;;;;;;4973831;28;20576;-74
2023/04/27 18:38:15;;;;;;;14.27;5.60;;;14.70;99.80;;;;;;4973883;28;20294;-72
2023/04/27 18:40:42;;;;;;;10.93;5.60;;;14.70;99.90;;;;;;4973800;28;20297;-74
2023/04/27 18:43:09;;;;;;;14.73;5.73;;;14.70;99.90;;;;;;4969244;28;20334;-73
2023/04/27 18:45:36;;;;;;;11.03;5.73;;;14.60;99.90;;;;;;4973343;28;20219;-73
2023/04/27 18:48:05;;;;;;;11.73;5.57;;;14.60;99.90;;;;;;4973660;28;20294;-72
2023/04/27 18:50:31;;;;;;;14.33;5.80;;;14.50;99.90;;;;;;4973737;28;20290;-79
2023/04/27 18:52:59;;;;;;;10.00;5.57;;;14.40;99.90;;;;;;4973922;28;20326;-76
2023/04/27 18:55:26;;;;;;;10.03;4.83;;;14.30;99.90;;;;;;4973298;28;20211;-75
2023/04/27 18:57:53;;;;;;;10.20;5.40;;;14.20;99.90;;;;;;4973655;28;20294;-75
2023/04/27 19:00:20;;;;;;;12.40;5.63;;;14.00;99.90;;;;;;4973564;28;20207;-74
2023/04/27 19:02:47;;;;;;;14.00;5.50;;;13.90;99.90;;;;;;4973862;28;20247;-75
2023/04/27 19:05:15;;;;;;;11.37;5.77;;;13.90;99.90;;;;;;4973752;28;20572;-75
2023/04/27 19:07:42;;;;;;;12.07;5.97;;;13.90;99.90;;;;;;4973731;28;20212;-75
2023/04/27 19:10:11;;;;;;;11.23;5.27;;;13.90;99.90;;;;;;4973566;28;20314;-75
2023/04/27 19:12:38;;;;;;;13.13;5.40;;;13.80;99.90;;;;;;4975789;28;20314;-75
2023/04/27 19:15:05;;;;;;;12.07;6.50;;;13.90;99.90;;;;;;4977573;28;20633;-75
2023/04/27 19:17:32;;;;;;;12.13;5.73;;;13.80;99.90;;;;;;4977624;28;20286;-76
2023/04/27 19:19:59;;;;;;;12.97;6.03;;;13.80;99.90;;;;;;4977648;28;20281;-71
2023/04/27 19:22:32;;;;;;;14.27;5.63;;;13.90;99.90;;;;;;4977315;28;20660;-71
2023/04/27 19:24:59;;;;;;;15.07;6.63;;;13.80;99.90;;;;;;4977193;28;20207;-77
2023/04/27 19:27:26;;;;;;;11.73;5.57;;;13.80;99.90;;;;;;4977126;28;20207;-77
2023/04/27 19:29:55;;;;;;;12.70;5.53;;;13.70;99.90;;;;;;4977359;28;20239;-77
2023/04/27 19:32:25;;;;;;;10.10;5.60;;;13.80;99.90;;;;;;4976962;28;20223;-76
2023/04/27 19:34:52;;;;;;;11.00;5.80;;;13.80;99.90;;;;;;4976707;28;20207;-70
2023/04/27 19:37:20;;;;;;;16.60;6.80;;;13.80;99.90;;;;;;4976791;28;20298;-76
2023/04/27 19:39:48;;;;;;;15.33;6.27;;;13.80;99.90;;;;;;4976876;28;20211;-71
2023/04/27 19:42:15;;;;;;;21.33;7.37;;;13.70;99.90;;;;;;4976560;28;20285;-70
2023/04/27 19:44:42;;;;;;;16.40;7.37;;;13.70;99.90;;;;;;4976819;28;20275;-70